createdAt,value
2018-08-18T00:00:39.965Z,16.60
2018-08-18T00:03:10.631Z,16.50
2018-08-18T00:05:40.937Z,16.40
2018-08-18T00:08:10.991Z,16.40
2018-08-18T00:10:41.210Z,16.50
2018-08-18T00:13:11.306Z,16.50
2018-08-18T00:15:41.287Z,16.60
2018-08-18T00:18:12.022Z,16.50
2018-08-18T00:20:42.720Z,16.40
2018-08-18T00:23:12.839Z,16.40
2018-08-18T00:25:43.427Z,16.30
2018-08-18T00:28:19.638Z,16.30
2018-08-18T00:30:49.523Z,16.30
2018-08-18T00:33:20.022Z,16.20
2018-08-18T00:35:50.191Z,16.20
2018-08-18T00:38:20.473Z,16.20
2018-08-18T00:40:50.432Z,16.10
2018-08-18T00:43:20.543Z,16.20
2018-08-18T00:45:50.464Z,16.20
2018-08-18T00:48:21.080Z,16.20
2018-08-18T00:50:51.182Z,16.20
2018-08-18T00:53:21.116Z,16.10
2018-08-18T00:55:51.184Z,16.00
2018-08-18T00:58:27.025Z,16.00
2018-08-18T01:01:02.185Z,16.10
2018-08-18T01:03:40.868Z,16.00
2018-08-18T01:06:29.982Z,16.00
2018-08-18T01:09:01.332Z,16.00
2018-08-18T01:11:31.666Z,15.90
2018-08-18T01:14:08.723Z,15.80
2018-08-18T01:16:42.752Z,15.80
2018-08-18T01:19:12.769Z,15.70
2018-08-18T01:21:47.017Z,15.70
2018-08-18T01:24:16.867Z,15.60
2018-08-18T01:26:47.012Z,15.40
2018-08-18T01:29:18.333Z,15.40
2018-08-18T01:31:48.681Z,15.50
2018-08-18T01:34:18.709Z,15.60
2018-08-18T01:36:48.626Z,15.60
2018-08-18T01:39:20.000Z,15.70
2018-08-18T01:41:50.088Z,15.70
2018-08-18T01:44:23.012Z,15.70
2018-08-18T01:46:53.922Z,15.60
2018-08-18T01:49:28.314Z,15.50
2018-08-18T01:51:59.667Z,15.40
2018-08-18T01:54:29.816Z,15.40
2018-08-18T01:57:14.858Z,15.40
2018-08-18T01:59:45.887Z,15.40
2018-08-18T02:02:18.443Z,15.40
2018-08-18T02:04:49.383Z,15.40
2018-08-18T02:07:22.582Z,15.40
2018-08-18T02:09:52.555Z,15.50
2018-08-18T02:12:23.622Z,15.50
2018-08-18T02:14:53.774Z,15.40
2018-08-18T02:17:27.626Z,15.40
2018-08-18T02:19:57.738Z,15.50
2018-08-18T02:22:28.346Z,15.50
2018-08-18T02:24:58.591Z,15.40
2018-08-18T02:27:28.580Z,15.40
2018-08-18T02:30:23.610Z,15.40
2018-08-18T02:32:53.883Z,15.40
2018-08-18T02:35:24.817Z,15.30
2018-08-18T02:37:54.818Z,15.20
2018-08-18T02:40:25.146Z,15.10
2018-08-18T02:42:55.211Z,15.20
2018-08-18T02:45:25.130Z,15.20
2018-08-18T02:48:10.368Z,15.10
2018-08-18T02:50:44.567Z,15.10
2018-08-18T02:53:27.604Z,15.10
2018-08-18T02:55:57.906Z,15.00
2018-08-18T02:58:28.509Z,14.80
2018-08-18T03:00:58.459Z,14.90
2018-08-18T03:03:28.649Z,14.90
2018-08-18T03:06:02.958Z,14.90
2018-08-18T03:08:33.044Z,14.80
2018-08-18T03:11:03.297Z,15.00
2018-08-18T03:13:33.214Z,15.10
2018-08-18T03:16:04.237Z,15.20
2018-08-18T03:18:50.200Z,15.20
2018-08-18T03:21:26.130Z,15.20
2018-08-18T03:24:07.137Z,16.00
2018-08-18T03:26:40.706Z,15.20
2018-08-18T03:29:11.489Z,15.10
2018-08-18T03:31:41.931Z,15.00
2018-08-18T03:34:12.624Z,15.10
2018-08-18T03:36:44.489Z,15.10
2018-08-18T03:39:24.030Z,15.20
2018-08-18T03:41:55.402Z,15.20
2018-08-18T03:44:25.424Z,15.10
2018-08-18T03:46:55.606Z,15.20
2018-08-18T03:49:26.263Z,15.10
2018-08-18T03:51:56.779Z,14.90
2018-08-18T03:54:26.905Z,14.10
2018-08-18T03:56:56.771Z,14.90
2018-08-18T03:59:26.648Z,14.90
2018-08-18T04:01:57.833Z,14.80
2018-08-18T04:04:30.379Z,14.80
2018-08-18T04:07:01.126Z,15.50
2018-08-18T04:09:32.289Z,14.80
2018-08-18T04:12:04.599Z,14.80
2018-08-18T04:14:41.580Z,14.80
2018-08-18T04:17:21.873Z,14.90
2018-08-18T04:19:52.413Z,14.90
2018-08-18T04:22:24.288Z,14.90
2018-08-18T04:24:55.819Z,14.80
2018-08-18T04:27:38.343Z,14.80
2018-08-18T04:30:13.213Z,14.90
2018-08-18T04:32:59.794Z,14.90
2018-08-18T04:35:31.168Z,14.90
2018-08-18T04:38:03.453Z,14.90
2018-08-18T04:40:33.741Z,14.90
2018-08-18T04:43:03.694Z,14.90
2018-08-18T04:45:33.656Z,14.90
2018-08-18T04:48:03.949Z,14.90
2018-08-18T04:50:34.058Z,14.90
2018-08-18T04:53:04.147Z,14.90
2018-08-18T04:55:34.548Z,14.90
2018-08-18T04:58:04.531Z,14.90
2018-08-18T05:00:34.454Z,14.80
2018-08-18T05:03:04.523Z,14.70
2018-08-18T05:05:34.509Z,14.80
2018-08-18T05:08:04.488Z,15.00
2018-08-18T05:10:34.906Z,14.90
2018-08-18T05:13:04.831Z,15.00
2018-08-18T05:15:34.775Z,15.00
2018-08-18T05:18:05.002Z,15.10
2018-08-18T05:20:35.238Z,15.20
2018-08-18T05:23:19.890Z,15.30
2018-08-18T05:25:51.022Z,15.40
2018-08-18T05:28:21.449Z,15.50
2018-08-18T05:30:53.890Z,15.60
2018-08-18T05:33:23.989Z,15.60
2018-08-18T05:35:54.157Z,15.50
2018-08-18T05:38:24.051Z,15.60
2018-08-18T05:40:54.063Z,15.70
2018-08-18T05:43:24.771Z,15.90
2018-08-18T05:45:54.896Z,16.90
2018-08-18T05:48:24.922Z,18.10
2018-08-18T05:50:55.325Z,19.10
2018-08-18T05:53:28.305Z,19.80
2018-08-18T05:55:58.792Z,20.40
2018-08-18T05:58:31.209Z,20.80
2018-08-18T06:01:07.306Z,21.10
2018-08-18T06:03:37.309Z,21.30
2018-08-18T06:06:08.313Z,20.60
2018-08-18T06:08:38.241Z,21.10
2018-08-18T06:11:08.386Z,20.90
2018-08-18T06:13:38.273Z,20.80
2018-08-18T06:16:11.173Z,20.60
2018-08-18T06:18:42.021Z,20.40
2018-08-18T06:21:12.078Z,20.00
2018-08-18T06:23:42.012Z,19.70
2018-08-18T06:26:12.490Z,19.30
2018-08-18T06:28:42.412Z,19.10
2018-08-18T06:31:12.576Z,18.90
2018-08-18T06:33:44.043Z,18.60
2018-08-18T06:36:13.939Z,18.40
2018-08-18T06:38:43.892Z,18.40
2018-08-18T06:41:14.342Z,18.40
2018-08-18T06:43:44.210Z,18.40
2018-08-18T06:46:14.351Z,18.30
2018-08-18T06:48:44.254Z,18.20
2018-08-18T06:51:14.343Z,18.20
2018-08-18T06:53:49.872Z,18.20
2018-08-18T06:56:19.763Z,18.30
2018-08-18T06:58:50.400Z,18.40
2018-08-18T07:01:20.583Z,18.40
2018-08-18T07:03:50.463Z,18.50
2018-08-18T07:06:20.885Z,18.50
2018-08-18T07:08:54.604Z,18.20
2018-08-18T07:11:24.601Z,18.20
2018-08-18T07:13:54.535Z,18.00
2018-08-18T07:16:24.617Z,17.80
2018-08-18T07:18:54.686Z,17.70
2018-08-18T07:21:25.528Z,17.60
2018-08-18T07:23:55.494Z,17.70
2018-08-18T07:26:25.574Z,17.80
2018-08-18T07:28:55.658Z,17.80
2018-08-18T07:31:25.726Z,17.80
2018-08-18T07:33:55.919Z,17.90
2018-08-18T07:36:26.518Z,18.00
2018-08-18T07:38:56.603Z,18.10
2018-08-18T07:41:26.577Z,18.20
2018-08-18T07:43:56.597Z,18.30
2018-08-18T07:46:26.851Z,18.40
2018-08-18T07:48:57.036Z,19.50
2018-08-18T07:51:27.315Z,18.60
2018-08-18T07:53:57.330Z,18.70
2018-08-18T07:56:27.506Z,18.70
2018-08-18T07:58:57.642Z,18.80
2018-08-18T08:01:27.854Z,18.90
2018-08-18T08:03:57.783Z,19.20
2018-08-18T08:06:28.321Z,19.40
2018-08-18T08:09:00.221Z,19.40
2018-08-18T08:11:30.476Z,19.60
2018-08-18T08:14:00.648Z,19.50
2018-08-18T08:16:30.783Z,19.70
2018-08-18T08:19:00.808Z,19.80
2018-08-18T08:21:31.342Z,19.60
2018-08-18T08:24:01.474Z,19.50
2018-08-18T08:26:31.662Z,19.50
2018-08-18T08:29:01.978Z,19.40
2018-08-18T08:31:32.245Z,19.50
2018-08-18T08:34:02.378Z,19.80
2018-08-18T08:36:32.745Z,20.00
2018-08-18T08:39:03.486Z,19.80
2018-08-18T08:41:34.252Z,19.80
2018-08-18T08:44:04.689Z,19.80
2018-08-18T08:46:34.932Z,19.90
2018-08-18T08:49:05.376Z,20.20
2018-08-18T08:51:35.549Z,20.50
2018-08-18T08:54:06.008Z,20.70
2018-08-18T08:56:39.210Z,20.40
2018-08-18T08:59:09.416Z,20.60
2018-08-18T09:01:40.503Z,20.90
2018-08-18T09:04:10.844Z,20.70
2018-08-18T09:06:48.925Z,20.60
2018-08-18T09:09:18.946Z,20.70
2018-08-18T09:11:50.507Z,20.90
2018-08-18T09:14:20.685Z,21.00
2018-08-18T09:16:51.188Z,21.40
2018-08-18T09:19:22.135Z,21.40
2018-08-18T09:21:54.264Z,21.50
2018-08-18T09:24:26.952Z,21.60
2018-08-18T09:26:59.612Z,21.60
2018-08-18T09:29:34.881Z,21.50
2018-08-18T09:32:05.564Z,21.70
2018-08-18T09:34:53.346Z,21.80
2018-08-18T09:37:23.804Z,21.90
2018-08-18T09:39:54.423Z,20.60
2018-08-18T09:42:24.727Z,21.30
2018-08-18T09:44:54.926Z,21.20
2018-08-18T09:47:25.448Z,21.20
2018-08-18T09:49:55.417Z,21.10
2018-08-18T09:52:25.641Z,21.20
2018-08-18T09:54:55.776Z,21.40
2018-08-18T09:57:25.966Z,21.80
2018-08-18T09:59:56.619Z,22.10
2018-08-18T10:02:28.340Z,22.20
2018-08-18T10:04:58.630Z,22.10
2018-08-18T10:07:29.182Z,22.10
2018-08-18T10:09:59.323Z,22.20
2018-08-18T10:12:29.452Z,22.10
2018-08-18T10:14:59.428Z,22.20
2018-08-18T10:17:30.251Z,22.20
2018-08-18T10:20:01.333Z,23.10
2018-08-18T10:22:31.895Z,22.20
2018-08-18T10:25:02.505Z,22.10
2018-08-18T10:27:32.862Z,22.30
2018-08-18T10:30:03.623Z,22.60
2018-08-18T10:32:35.878Z,22.70
2018-08-18T10:35:07.382Z,22.80
2018-08-18T10:37:38.268Z,23.00
2018-08-18T10:40:10.868Z,23.20
2018-08-18T10:42:40.920Z,23.40
2018-08-18T10:45:11.310Z,23.30
2018-08-18T10:47:42.411Z,23.10
2018-08-18T10:50:27.435Z,23.10
2018-08-18T10:53:00.862Z,23.00
2018-08-18T10:55:33.508Z,23.20
2018-08-18T10:58:07.215Z,23.40
2018-08-18T11:00:37.467Z,23.20
2018-08-18T11:03:09.184Z,23.00
2018-08-18T11:05:39.115Z,22.70
2018-08-18T11:08:10.449Z,22.80
2018-08-18T11:10:42.089Z,22.80
2018-08-18T11:13:12.616Z,23.10
2018-08-18T11:15:44.814Z,23.40
2018-08-18T11:18:17.036Z,23.70
2018-08-18T11:20:48.734Z,23.60
2018-08-18T11:23:25.010Z,23.50
2018-08-18T11:25:57.562Z,23.60
2018-08-18T11:28:29.764Z,23.90
2018-08-18T11:31:02.468Z,23.70
2018-08-18T11:33:42.263Z,23.40
2018-08-18T11:36:14.712Z,23.20
2018-08-18T11:38:46.952Z,23.20
2018-08-18T11:41:18.275Z,23.50
2018-08-18T11:43:53.100Z,23.80
2018-08-18T11:46:23.609Z,24.00
2018-08-18T11:48:53.957Z,23.80
2018-08-18T11:51:28.896Z,23.80
2018-08-18T11:54:03.996Z,23.60
2018-08-18T11:56:39.883Z,23.80
2018-08-18T11:59:14.266Z,23.70
2018-08-18T12:01:48.813Z,24.00
2018-08-18T12:04:23.037Z,24.30
2018-08-18T12:06:58.107Z,23.40
2018-08-18T12:09:29.159Z,24.50
2018-08-18T12:11:59.343Z,24.80
2018-08-18T12:14:30.234Z,25.00
2018-08-18T12:17:00.921Z,25.00
2018-08-18T12:19:31.077Z,24.30
2018-08-18T12:22:01.145Z,24.10
2018-08-18T12:24:31.655Z,23.80
2018-08-18T12:27:11.501Z,24.20
2018-08-18T12:29:41.915Z,24.40
2018-08-18T12:32:17.232Z,24.60
2018-08-18T12:34:47.539Z,24.80
2018-08-18T12:37:18.018Z,24.90
2018-08-18T12:39:48.275Z,24.80
2018-08-18T12:42:24.705Z,24.00
2018-08-18T12:44:55.817Z,25.20
2018-08-18T12:47:26.466Z,25.10
2018-08-18T12:49:56.584Z,25.30
2018-08-18T12:52:27.619Z,25.40
2018-08-18T12:54:58.487Z,25.20
2018-08-18T12:57:39.033Z,24.60
2018-08-18T13:00:10.991Z,24.70
2018-08-18T13:02:50.404Z,24.50
2018-08-18T13:05:23.315Z,24.90
2018-08-18T13:07:55.485Z,25.00
2018-08-18T13:10:29.819Z,24.90
2018-08-18T13:12:59.946Z,24.70
2018-08-18T13:15:30.246Z,24.90
2018-08-18T13:18:00.437Z,25.10
2018-08-18T13:20:30.693Z,25.00
2018-08-18T13:23:01.196Z,25.10
2018-08-18T13:25:31.631Z,24.50
2018-08-18T13:28:02.939Z,25.40
2018-08-18T13:30:33.246Z,25.20
2018-08-18T13:33:03.747Z,25.30
2018-08-18T13:35:33.889Z,25.10
2018-08-18T13:38:04.528Z,25.10
2018-08-18T13:40:34.998Z,25.20
2018-08-18T13:43:06.059Z,25.00
2018-08-18T13:45:46.231Z,25.10
2018-08-18T13:48:16.532Z,25.70
2018-08-18T13:50:46.513Z,25.10
2018-08-18T13:53:16.994Z,25.10
2018-08-18T13:55:47.509Z,25.20
2018-08-18T13:58:18.220Z,25.30
2018-08-18T14:00:48.504Z,25.40
2018-08-18T14:03:28.603Z,25.60
2018-08-18T14:05:58.759Z,25.80
2018-08-18T14:08:29.116Z,25.60
2018-08-18T14:10:59.259Z,25.50
2018-08-18T14:13:30.013Z,25.70
2018-08-18T14:16:00.174Z,25.70
2018-08-18T14:18:30.260Z,25.70
2018-08-18T14:21:08.397Z,25.70
2018-08-18T14:23:38.424Z,25.60
2018-08-18T14:26:10.084Z,25.40
2018-08-18T14:28:41.856Z,25.40
2018-08-18T14:31:12.053Z,24.60
2018-08-18T14:33:42.904Z,25.00
2018-08-18T14:36:17.989Z,25.00
2018-08-18T14:38:48.772Z,26.30
2018-08-18T14:41:40.780Z,25.10
2018-08-18T14:44:10.959Z,25.00
2018-08-18T14:46:43.235Z,24.90
2018-08-18T14:49:13.360Z,24.90
2018-08-18T14:51:43.821Z,25.00
2018-08-18T14:54:15.095Z,25.20
2018-08-18T14:56:45.124Z,25.10
2018-08-18T14:59:16.038Z,25.30
2018-08-18T15:01:46.146Z,25.00
2018-08-18T15:04:16.220Z,25.40
2018-08-18T15:06:47.274Z,24.70
2018-08-18T15:09:28.633Z,25.00
2018-08-18T15:11:59.554Z,24.90
2018-08-18T15:14:29.719Z,24.90
2018-08-18T15:16:59.977Z,24.40
2018-08-18T15:19:32.237Z,24.40
2018-08-18T15:22:05.745Z,24.50
2018-08-18T15:24:35.971Z,24.40
2018-08-18T15:27:07.698Z,24.40
2018-08-18T15:29:39.486Z,24.60
2018-08-18T15:32:09.710Z,24.30
2018-08-18T15:34:40.036Z,24.40
2018-08-18T15:37:10.362Z,24.50
2018-08-18T15:39:40.461Z,24.70
2018-08-18T15:42:10.607Z,24.60
2018-08-18T15:44:50.801Z,24.60
2018-08-18T15:47:21.801Z,25.00
2018-08-18T15:49:52.039Z,24.50
2018-08-18T15:52:24.101Z,24.40
2018-08-18T15:54:54.385Z,24.50
2018-08-18T15:57:24.607Z,24.50
2018-08-18T15:59:54.705Z,24.50
2018-08-18T16:02:25.209Z,24.60
2018-08-18T16:04:55.199Z,24.80
2018-08-18T16:07:25.448Z,24.70
2018-08-18T16:09:55.869Z,24.80
2018-08-18T16:12:26.865Z,24.70
2018-08-18T16:14:57.771Z,24.80
2018-08-18T16:17:28.230Z,24.70
2018-08-18T16:19:58.580Z,24.40
2018-08-18T16:22:28.690Z,24.40
2018-08-18T16:24:59.424Z,24.40
2018-08-18T16:27:29.453Z,24.60
2018-08-18T16:29:59.335Z,24.20
2018-08-18T16:32:29.668Z,25.00
2018-08-18T16:35:04.940Z,24.10
2018-08-18T16:37:38.037Z,24.20
2018-08-18T16:40:08.725Z,24.20
2018-08-18T16:42:38.813Z,24.10
2018-08-18T16:45:10.567Z,23.90
2018-08-18T16:47:44.977Z,24.10
2018-08-18T16:50:16.914Z,24.20
2018-08-18T16:52:47.131Z,24.20
2018-08-18T16:58:41.010Z,24.30
2018-08-18T17:01:11.756Z,24.30
2018-08-18T17:03:42.638Z,24.30
2018-08-18T17:06:14.412Z,24.30
2018-08-18T17:08:46.270Z,24.40
2018-08-18T17:11:17.492Z,24.00
2018-08-18T17:13:48.273Z,23.90
2018-08-18T17:16:19.559Z,23.80
2018-08-18T17:18:51.092Z,23.70
2018-08-18T17:21:21.586Z,23.70
2018-08-18T17:23:52.164Z,23.40
2018-08-18T17:26:22.768Z,23.40
2018-08-18T17:28:53.169Z,23.60
2018-08-18T17:31:23.545Z,23.60
2018-08-18T17:33:54.282Z,23.50
2018-08-18T17:36:24.815Z,23.70
2018-08-18T17:38:55.297Z,23.70
2018-08-18T17:41:25.843Z,23.50
2018-08-18T17:43:56.235Z,23.40
2018-08-18T17:46:26.752Z,23.40
2018-08-18T17:48:57.721Z,23.40
2018-08-18T17:51:28.119Z,23.30
2018-08-18T17:53:58.475Z,23.30
2018-08-18T17:56:28.874Z,23.30
2018-08-18T18:00:23.405Z,23.30
2018-08-18T18:02:58.673Z,23.10
2018-08-18T18:05:33.013Z,23.00
2018-08-18T18:08:06.927Z,23.10
2018-08-18T18:10:38.904Z,23.10
2018-08-18T18:13:15.714Z,22.00
2018-08-18T18:15:47.473Z,23.20
2018-08-18T18:18:19.846Z,23.00
2018-08-18T18:20:51.632Z,23.00
2018-08-18T18:23:22.509Z,23.00
2018-08-18T18:25:53.541Z,23.90
2018-08-18T18:28:24.041Z,22.80
2018-08-18T18:30:55.085Z,22.70
2018-08-18T18:33:25.587Z,22.70
2018-08-18T18:35:56.221Z,22.60
2018-08-18T18:38:26.875Z,22.50
2018-08-18T18:40:57.268Z,22.50
2018-08-18T18:43:27.687Z,22.40
2018-08-18T18:45:58.638Z,20.60
2018-08-18T18:48:28.998Z,22.10
2018-08-18T18:50:59.453Z,22.10
2018-08-18T18:53:39.601Z,21.90
2018-08-18T18:56:10.049Z,22.10
2018-08-18T18:58:40.735Z,22.10
2018-08-18T19:01:11.089Z,22.10
2018-08-18T19:03:41.555Z,22.10
2018-08-18T19:06:12.222Z,22.20
2018-08-18T19:08:56.134Z,22.20
2018-08-18T19:11:27.973Z,21.90
2018-08-18T19:13:58.452Z,22.20
2018-08-18T19:16:28.854Z,22.20
2018-08-18T19:18:59.219Z,22.30
2018-08-18T19:21:32.655Z,22.40
2018-08-18T19:24:11.820Z,22.30
2018-08-18T19:27:00.793Z,22.20
2018-08-18T19:29:31.538Z,22.10
2018-08-18T19:32:02.708Z,22.20
2018-08-18T19:34:34.716Z,22.20
2018-08-18T19:37:07.626Z,22.10
2018-08-18T19:39:38.749Z,22.10
2018-08-18T19:42:17.479Z,21.90
2018-08-18T19:44:50.029Z,22.00
2018-08-18T19:47:26.934Z,22.00
2018-08-18T19:49:57.616Z,21.00
2018-08-18T19:52:28.101Z,22.00
2018-08-18T19:54:58.706Z,22.00
2018-08-18T19:57:34.387Z,22.00
2018-08-18T20:00:26.814Z,22.00
2018-08-18T20:03:05.908Z,21.90
2018-08-18T20:05:37.209Z,21.90
2018-08-18T20:08:08.090Z,21.90
2018-08-18T20:10:46.057Z,21.80
2018-08-18T20:13:16.969Z,21.70
2018-08-18T20:15:49.417Z,21.80
2018-08-18T20:18:19.799Z,21.80
2018-08-18T20:20:50.140Z,21.70
2018-08-18T20:23:21.854Z,21.70
2018-08-18T20:25:52.728Z,21.60
2018-08-18T20:28:23.088Z,21.40
2018-08-18T20:30:54.447Z,21.40
2018-08-18T20:33:25.197Z,21.40
2018-08-18T20:35:57.795Z,21.30
2018-08-18T20:38:32.293Z,21.30
2018-08-18T20:41:03.699Z,21.20
2018-08-18T20:43:36.485Z,21.20
2018-08-18T20:46:07.238Z,21.10
2018-08-18T20:48:38.118Z,21.10
2018-08-18T20:51:08.605Z,21.10
2018-08-18T20:53:39.345Z,22.00
2018-08-18T20:56:09.660Z,21.10
2018-08-18T20:58:40.146Z,21.00
2018-08-18T21:01:10.521Z,21.00
2018-08-18T21:03:48.976Z,20.90
2018-08-18T21:06:20.214Z,20.90
2018-08-18T21:08:50.690Z,21.00
2018-08-18T21:11:21.121Z,20.90
2018-08-18T21:13:52.762Z,20.90
2018-08-18T21:16:24.493Z,20.90
2018-08-18T21:18:54.793Z,20.80
2018-08-18T21:21:31.856Z,20.90
2018-08-18T21:24:02.227Z,20.80
2018-08-18T21:26:33.050Z,20.80
2018-08-18T21:29:03.674Z,20.70
2018-08-18T21:31:36.078Z,20.60
2018-08-18T21:34:08.126Z,20.60
2018-08-18T21:36:38.476Z,20.50
2018-08-18T21:39:10.868Z,20.50
2018-08-18T21:41:42.624Z,20.40
2018-08-18T21:44:14.462Z,20.30
2018-08-18T21:46:45.147Z,20.30
2018-08-18T21:49:15.457Z,20.20
2018-08-18T21:51:45.899Z,20.30
2018-08-18T21:54:16.918Z,20.30
2018-08-18T21:56:47.274Z,20.10
2018-08-18T21:59:18.093Z,20.10
2018-08-18T22:01:48.481Z,20.10
2018-08-18T22:04:19.008Z,20.10
2018-08-18T22:06:49.596Z,20.10
2018-08-18T22:09:25.563Z,20.00
2018-08-18T22:11:56.423Z,20.00
2018-08-18T22:14:27.105Z,20.00
2018-08-18T22:16:58.219Z,20.00
2018-08-18T22:19:29.822Z,19.90
2018-08-18T22:22:00.217Z,19.90
2018-08-18T22:24:30.574Z,19.80
2018-08-18T22:27:01.142Z,19.80
2018-08-18T22:29:31.872Z,19.80
2018-08-18T22:32:07.971Z,19.70
2018-08-18T22:34:38.382Z,19.60
2018-08-18T22:37:14.666Z,19.50
2018-08-18T22:39:45.478Z,19.50
2018-08-18T22:42:15.740Z,19.60
2018-08-18T22:44:46.315Z,19.60
2018-08-18T22:47:17.047Z,19.50
2018-08-18T22:49:47.419Z,19.40
2018-08-18T22:52:17.727Z,19.40
2018-08-18T22:54:48.554Z,18.80
2018-08-18T22:57:18.862Z,19.10
2018-08-18T22:59:49.424Z,18.10
2018-08-18T23:02:20.433Z,19.10
2018-08-18T23:04:50.937Z,19.10
2018-08-18T23:07:21.243Z,19.10
2018-08-18T23:09:51.837Z,19.20
2018-08-18T23:12:22.237Z,19.00
2018-08-18T23:14:52.730Z,19.10
2018-08-18T23:17:23.034Z,19.10
2018-08-18T23:19:53.360Z,19.10
2018-08-18T23:22:38.126Z,19.10
2018-08-18T23:25:08.538Z,19.00
2018-08-18T23:27:39.235Z,18.90
2018-08-18T23:30:10.416Z,19.00
2018-08-18T23:32:40.699Z,19.00
2018-08-18T23:35:11.819Z,19.10
2018-08-18T23:37:42.432Z,20.40
2018-08-18T23:40:12.845Z,19.80
2018-08-18T23:42:43.423Z,19.00
2018-08-18T23:45:13.992Z,19.00
2018-08-18T23:47:45.245Z,19.00
2018-08-18T23:50:16.085Z,18.90
2018-08-18T23:52:56.201Z,18.90
2018-08-18T23:55:28.035Z,18.80
2018-08-18T23:57:58.721Z,18.70
